sensor_id;sensor_type;location;lat;lon;timestamp;temperature;humidity
15121;DHT22;7661;48.904;9.414;2023-07-02T00:01:44;16.70;99.90
15121;DHT22;7661;48.904;9.414;2023-07-02T00:04:13;16.70;99.90
15121;DHT22;7661;48.904;9.414;2023-07-02T00:06:42;16.70;99.90
15121;DHT22;7661;48.904;9.414;2023-07-02T00:09:09;16.70;99.90
15121;DHT22;7661;48.904;9.414;2023-07-02T00:11:37;16.70;99.90
15121;DHT22;7661;48.904;9.414;2023-07-02T00:14:04;16.70;99.90
15121;DHT22;7661;48.904;9.414;2023-07-02T00:16:32;16.70;99.90
15121;DHT22;7661;48.904;9.414;2023-07-02T00:18:59;16.60;99.90
15121;DHT22;7661;48.904;9.414;2023-07-02T00:21:27;16.70;99.90
15121;DHT22;7661;48.904;9.414;2023-07-02T00:23:54;16.70;99.90
15121;DHT22;7661;48.904;9.414;2023-07-02T00:26:22;16.60;99.90
15121;DHT22;7661;48.904;9.414;2023-07-02T00:28:49;16.60;99.90
15121;DHT22;7661;48.904;9.414;2023-07-02T00:31:16;16.60;99.90
15121;DHT22;7661;48.904;9.414;2023-07-02T00:33:43;16.60;99.90
15121;DHT22;7661;48.904;9.414;2023-07-02T00:36:10;16.60;99.90
15121;DHT22;7661;48.904;9.414;2023-07-02T00:38:41;16.50;99.90
15121;DHT22;7661;48.904;9.414;2023-07-02T00:41:08;16.50;99.90
15121;DHT22;7661;48.904;9.414;2023-07-02T00:43:35;16.40;99.90
15121;DHT22;7661;48.904;9.414;2023-07-02T00:46:04;16.40;99.90
15121;DHT22;7661;48.904;9.414;2023-07-02T00:48:31;16.40;99.90
15121;DHT22;7661;48.904;9.414;2023-07-02T00:50:58;16.30;99.90
15121;DHT22;7661;48.904;9.414;2023-07-02T00:53:25;16.30;99.90
15121;DHT22;7661;48.904;9.414;2023-07-02T00:55:53;16.30;99.90
15121;DHT22;7661;48.904;9.414;2023-07-02T00:58:20;16.30;99.90
15121;DHT22;7661;48.904;9.414;2023-07-02T01:00:47;16.30;99.90
15121;DHT22;7661;48.904;9.414;2023-07-02T01:03:14;16.30;99.90
15121;DHT22;7661;48.904;9.414;2023-07-02T01:05:41;16.30;99.90
15121;DHT22;7661;48.904;9.414;2023-07-02T01:08:08;16.20;99.90
15121;DHT22;7661;48.904;9.414;2023-07-02T01:10:36;16.30;99.90
15121;DHT22;7661;48.904;9.414;2023-07-02T01:13:07;16.30;99.90
15121;DHT22;7661;48.904;9.414;2023-07-02T01:15:36;16.30;99.90
15121;DHT22;7661;48.904;9.414;2023-07-02T01:18:04;16.20;99.90
15121;DHT22;7661;48.904;9.414;2023-07-02T01:20:33;16.30;99.90
15121;DHT22;7661;48.904;9.414;2023-07-02T01:23:01;16.30;99.90
15121;DHT22;7661;48.904;9.414;2023-07-02T01:25:29;16.30;99.90
15121;DHT22;7661;48.904;9.414;2023-07-02T01:27:56;16.30;99.90
15121;DHT22;7661;48.904;9.414;2023-07-02T01:30:24;16.30;99.90
15121;DHT22;7661;48.904;9.414;2023-07-02T01:32:51;16.30;99.90
15121;DHT22;7661;48.904;9.414;2023-07-02T01:35:18;16.30;99.90
15121;DHT22;7661;48.904;9.414;2023-07-02T01:37:47;16.30;99.90
15121;DHT22;7661;48.904;9.414;2023-07-02T01:40:14;16.30;99.90
15121;DHT22;7661;48.904;9.414;2023-07-02T01:42:40;16.30;99.90
15121;DHT22;7661;48.904;9.414;2023-07-02T01:45:08;16.30;99.90
15121;DHT22;7661;48.904;9.414;2023-07-02T01:47:35;16.20;99.90
15121;DHT22;7661;48.904;9.414;2023-07-02T01:50:04;16.20;99.90
15121;DHT22;7661;48.904;9.414;2023-07-02T01:52:31;16.20;99.90
15121;DHT22;7661;48.904;9.414;2023-07-02T01:55:01;16.10;99.90
15121;DHT22;7661;48.904;9.414;2023-07-02T01:57:28;16.10;99.90
15121;DHT22;7661;48.904;9.414;2023-07-02T01:59:56;16.00;99.90
15121;DHT22;7661;48.904;9.414;2023-07-02T02:02:23;16.10;99.90
15121;DHT22;7661;48.904;9.414;2023-07-02T02:04:50;16.00;99.90
15121;DHT22;7661;48.904;9.414;2023-07-02T02:07:17;16.00;99.90
15121;DHT22;7661;48.904;9.414;2023-07-02T02:09:44;16.00;99.90
15121;DHT22;7661;48.904;9.414;2023-07-02T02:12:12;15.90;99.90
15121;DHT22;7661;48.904;9.414;2023-07-02T02:14:40;16.00;99.90
15121;DHT22;7661;48.904;9.414;2023-07-02T02:17:07;16.00;99.90
15121;DHT22;7661;48.904;9.414;2023-07-02T02:19:34;15.90;99.90
15121;DHT22;7661;48.904;9.414;2023-07-02T02:22:01;16.00;99.90
15121;DHT22;7661;48.904;9.414;2023-07-02T02:24:28;15.90;99.90
15121;DHT22;7661;48.904;9.414;2023-07-02T02:26:55;15.90;99.90
15121;DHT22;7661;48.904;9.414;2023-07-02T02:29:23;15.90;99.90
15121;DHT22;7661;48.904;9.414;2023-07-02T02:31:50;15.90;99.90
15121;DHT22;7661;48.904;9.414;2023-07-02T02:34:17;15.90;99.90
15121;DHT22;7661;48.904;9.414;2023-07-02T02:36:44;15.80;99.90
15121;DHT22;7661;48.904;9.414;2023-07-02T02:39:12;15.90;99.90
15121;DHT22;7661;48.904;9.414;2023-07-02T02:41:39;15.90;99.90
15121;DHT22;7661;48.904;9.414;2023-07-02T02:44:06;15.90;99.90
15121;DHT22;7661;48.904;9.414;2023-07-02T02:46:34;15.90;99.90
15121;DHT22;7661;48.904;9.414;2023-07-02T02:49:01;15.90;99.90
15121;DHT22;7661;48.904;9.414;2023-07-02T02:51:28;15.90;99.90
15121;DHT22;7661;48.904;9.414;2023-07-02T02:53:55;15.90;99.90
15121;DHT22;7661;48.904;9.414;2023-07-02T02:56:22;15.90;99.90
15121;DHT22;7661;48.904;9.414;2023-07-02T02:58:48;15.90;99.90
15121;DHT22;7661;48.904;9.414;2023-07-02T03:01:15;15.90;99.90
15121;DHT22;7661;48.904;9.414;2023-07-02T03:03:44;15.90;99.90
15121;DHT22;7661;48.904;9.414;2023-07-02T03:06:12;15.90;99.90
15121;DHT22;7661;48.904;9.414;2023-07-02T03:08:40;15.90;99.90
15121;DHT22;7661;48.904;9.414;2023-07-02T03:11:07;15.90;99.90
15121;DHT22;7661;48.904;9.414;2023-07-02T03:13:34;16.00;99.90
15121;DHT22;7661;48.904;9.414;2023-07-02T03:16:01;16.00;99.90
15121;DHT22;7661;48.904;9.414;2023-07-02T03:18:28;15.90;99.90
15121;DHT22;7661;48.904;9.414;2023-07-02T03:20:56;16.00;99.90
15121;DHT22;7661;48.904;9.414;2023-07-02T03:23:23;16.00;99.90
15121;DHT22;7661;48.904;9.414;2023-07-02T03:25:49;16.00;99.90
15121;DHT22;7661;48.904;9.414;2023-07-02T03:28:16;16.00;99.90
15121;DHT22;7661;48.904;9.414;2023-07-02T03:30:43;16.00;99.90
15121;DHT22;7661;48.904;9.414;2023-07-02T03:33:10;16.10;99.90
15121;DHT22;7661;48.904;9.414;2023-07-02T03:35:37;16.10;99.90
15121;DHT22;7661;48.904;9.414;2023-07-02T03:38:05;16.10;99.90
15121;DHT22;7661;48.904;9.414;2023-07-02T03:40:32;16.00;99.90
15121;DHT22;7661;48.904;9.414;2023-07-02T03:42:59;16.00;99.90
15121;DHT22;7661;48.904;9.414;2023-07-02T03:45:26;15.90;99.90
15121;DHT22;7661;48.904;9.414;2023-07-02T03:47:53;15.80;99.90
15121;DHT22;7661;48.904;9.414;2023-07-02T03:50:20;15.80;99.90
15121;DHT22;7661;48.904;9.414;2023-07-02T03:52:46;15.80;99.90
15121;DHT22;7661;48.904;9.414;2023-07-02T03:55:15;15.70;99.90
15121;DHT22;7661;48.904;9.414;2023-07-02T03:57:42;15.70;99.90
15121;DHT22;7661;48.904;9.414;2023-07-02T04:00:09;15.60;99.90
15121;DHT22;7661;48.904;9.414;2023-07-02T04:02:37;15.50;99.90
15121;DHT22;7661;48.904;9.414;2023-07-02T04:05:04;15.50;99.90
15121;DHT22;7661;48.904;9.414;2023-07-02T04:07:31;15.50;99.90
15121;DHT22;7661;48.904;9.414;2023-07-02T04:09:58;15.50;99.90
15121;DHT22;7661;48.904;9.414;2023-07-02T04:12:27;15.50;99.90
15121;DHT22;7661;48.904;9.414;2023-07-02T04:14:54;15.50;99.90
15121;DHT22;7661;48.904;9.414;2023-07-02T04:17:21;15.50;99.90
15121;DHT22;7661;48.904;9.414;2023-07-02T04:19:47;15.50;99.90
15121;DHT22;7661;48.904;9.414;2023-07-02T04:22:15;15.40;99.90
15121;DHT22;7661;48.904;9.414;2023-07-02T04:24:43;15.40;99.90
15121;DHT22;7661;48.904;9.414;2023-07-02T04:27:10;15.40;99.90
15121;DHT22;7661;48.904;9.414;2023-07-02T04:29:40;15.40;99.90
15121;DHT22;7661;48.904;9.414;2023-07-02T04:32:07;15.40;99.90
15121;DHT22;7661;48.904;9.414;2023-07-02T04:34:34;15.40;99.90
15121;DHT22;7661;48.904;9.414;2023-07-02T04:37:02;15.40;99.90
15121;DHT22;7661;48.904;9.414;2023-07-02T04:39:28;15.40;99.90
15121;DHT22;7661;48.904;9.414;2023-07-02T04:41:55;15.40;99.90
15121;DHT22;7661;48.904;9.414;2023-07-02T04:44:22;15.30;99.90
15121;DHT22;7661;48.904;9.414;2023-07-02T04:46:56;15.30;99.90
15121;DHT22;7661;48.904;9.414;2023-07-02T04:49:23;15.30;99.90
15121;DHT22;7661;48.904;9.414;2023-07-02T04:51:50;15.30;99.90
15121;DHT22;7661;48.904;9.414;2023-07-02T04:54:19;15.30;99.90
15121;DHT22;7661;48.904;9.414;2023-07-02T04:56:46;15.30;99.90
15121;DHT22;7661;48.904;9.414;2023-07-02T04:59:12;15.40;99.90
15121;DHT22;7661;48.904;9.414;2023-07-02T05:01:39;15.40;99.90
15121;DHT22;7661;48.904;9.414;2023-07-02T05:04:09;15.50;99.90
15121;DHT22;7661;48.904;9.414;2023-07-02T05:06:36;15.60;99.90
15121;DHT22;7661;48.904;9.414;2023-07-02T05:09:04;15.70;99.90
15121;DHT22;7661;48.904;9.414;2023-07-02T05:11:31;15.70;99.90
15121;DHT22;7661;48.904;9.414;2023-07-02T05:13:57;15.70;99.90
15121;DHT22;7661;48.904;9.414;2023-07-02T05:16:24;15.70;99.90
15121;DHT22;7661;48.904;9.414;2023-07-02T05:18:51;15.70;99.90
15121;DHT22;7661;48.904;9.414;2023-07-02T05:21:19;15.80;99.90
15121;DHT22;7661;48.904;9.414;2023-07-02T05:23:47;15.80;99.90
15121;DHT22;7661;48.904;9.414;2023-07-02T05:26:14;15.80;99.90
15121;DHT22;7661;48.904;9.414;2023-07-02T05:28:41;15.90;99.90
15121;DHT22;7661;48.904;9.414;2023-07-02T05:31:07;15.90;99.90
15121;DHT22;7661;48.904;9.414;2023-07-02T05:33:34;16.00;99.90
15121;DHT22;7661;48.904;9.414;2023-07-02T05:36:01;16.10;99.90
15121;DHT22;7661;48.904;9.414;2023-07-02T05:38:29;16.20;99.90
15121;DHT22;7661;48.904;9.414;2023-07-02T05:40:56;16.30;99.90
15121;DHT22;7661;48.904;9.414;2023-07-02T05:43:23;16.30;99.90
15121;DHT22;7661;48.904;9.414;2023-07-02T05:45:51;16.30;99.90
15121;DHT22;7661;48.904;9.414;2023-07-02T05:48:18;16.20;99.90
15121;DHT22;7661;48.904;9.414;2023-07-02T05:50:44;16.20;99.90
15121;DHT22;7661;48.904;9.414;2023-07-02T05:53:11;16.20;99.90
15121;DHT22;7661;48.904;9.414;2023-07-02T05:55:39;16.20;99.90
15121;DHT22;7661;48.904;9.414;2023-07-02T05:58:07;16.30;99.90
15121;DHT22;7661;48.904;9.414;2023-07-02T06:00:34;16.30;99.90
15121;DHT22;7661;48.904;9.414;2023-07-02T06:03:01;16.40;99.90
15121;DHT22;7661;48.904;9.414;2023-07-02T06:05:28;16.50;99.90
15121;DHT22;7661;48.904;9.414;2023-07-02T06:07:55;16.40;99.90
15121;DHT22;7661;48.904;9.414;2023-07-02T06:10:22;16.40;99.90
15121;DHT22;7661;48.904;9.414;2023-07-02T06:12:50;16.50;99.90
15121;DHT22;7661;48.904;9.414;2023-07-02T06:15:17;16.50;99.90
15121;DHT22;7661;48.904;9.414;2023-07-02T06:17:44;16.50;99.90
15121;DHT22;7661;48.904;9.414;2023-07-02T06:20:12;16.60;99.90
15121;DHT22;7661;48.904;9.414;2023-07-02T06:22:39;16.70;99.90
15121;DHT22;7661;48.904;9.414;2023-07-02T06:25:08;16.80;99.90
15121;DHT22;7661;48.904;9.414;2023-07-02T06:27:35;16.90;99.90
15121;DHT22;7661;48.904;9.414;2023-07-02T06:30:03;16.90;99.90
15121;DHT22;7661;48.904;9.414;2023-07-02T06:32:31;17.10;99.90
15121;DHT22;7661;48.904;9.414;2023-07-02T06:34:58;17.10;99.90
15121;DHT22;7661;48.904;9.414;2023-07-02T06:37:25;17.10;99.90
15121;DHT22;7661;48.904;9.414;2023-07-02T06:39:52;17.30;99.90
15121;DHT22;7661;48.904;9.414;2023-07-02T06:42:19;17.40;99.90
15121;DHT22;7661;48.904;9.414;2023-07-02T06:44:46;17.50;99.90
15121;DHT22;7661;48.904;9.414;2023-07-02T06:47:14;17.70;99.90
15121;DHT22;7661;48.904;9.414;2023-07-02T06:49:41;17.70;99.90
15121;DHT22;7661;48.904;9.414;2023-07-02T06:52:07;17.80;99.90
15121;DHT22;7661;48.904;9.414;2023-07-02T06:54:34;17.90;99.90
15121;DHT22;7661;48.904;9.414;2023-07-02T06:57:02;17.80;99.90
15121;DHT22;7661;48.904;9.414;2023-07-02T06:59:28;17.80;99.90
15121;DHT22;7661;48.904;9.414;2023-07-02T07:01:55;17.80;99.90
15121;DHT22;7661;48.904;9.414;2023-07-02T07:04:24;17.90;99.90
15121;DHT22;7661;48.904;9.414;2023-07-02T07:06:50;17.90;99.90
15121;DHT22;7661;48.904;9.414;2023-07-02T07:09:17;18.00;99.90
15121;DHT22;7661;48.904;9.414;2023-07-02T07:11:44;18.00;99.90
15121;DHT22;7661;48.904;9.414;2023-07-02T07:14:11;18.10;99.90
15121;DHT22;7661;48.904;9.414;2023-07-02T07:16:38;18.30;99.90
15121;DHT22;7661;48.904;9.414;2023-07-02T07:19:05;18.40;99.90
15121;DHT22;7661;48.904;9.414;2023-07-02T07:21:34;18.50;99.90
15121;DHT22;7661;48.904;9.414;2023-07-02T07:24:01;18.70;99.90
15121;DHT22;7661;48.904;9.414;2023-07-02T07:26:28;18.60;99.90
15121;DHT22;7661;48.904;9.414;2023-07-02T07:28:55;18.60;99.90
15121;DHT22;7661;48.904;9.414;2023-07-02T07:31:23;18.70;99.90
15121;DHT22;7661;48.904;9.414;2023-07-02T07:33:50;18.60;99.90
15121;DHT22;7661;48.904;9.414;2023-07-02T07:36:17;18.70;99.90
15121;DHT22;7661;48.904;9.414;2023-07-02T07:38:45;18.90;99.90
15121;DHT22;7661;48.904;9.414;2023-07-02T07:41:12;19.20;99.90
15121;DHT22;7661;48.904;9.414;2023-07-02T07:43:39;19.40;99.90
15121;DHT22;7661;48.904;9.414;2023-07-02T07:46:06;19.40;99.90
15121;DHT22;7661;48.904;9.414;2023-07-02T07:48:32;19.50;99.90
15121;DHT22;7661;48.904;9.414;2023-07-02T07:50:59;19.40;99.90
15121;DHT22;7661;48.904;9.414;2023-07-02T07:53:26;19.30;99.90
15121;DHT22;7661;48.904;9.414;2023-07-02T07:55:54;19.30;99.90
15121;DHT22;7661;48.904;9.414;2023-07-02T07:58:22;19.30;99.90
15121;DHT22;7661;48.904;9.414;2023-07-02T08:00:49;19.30;99.90
15121;DHT22;7661;48.904;9.414;2023-07-02T08:03:16;19.40;99.90
15121;DHT22;7661;48.904;9.414;2023-07-02T08:05:43;19.50;99.90
15121;DHT22;7661;48.904;9.414;2023-07-02T08:08:10;19.60;99.90
15121;DHT22;7661;48.904;9.414;2023-07-02T08:10:36;19.80;99.90
15121;DHT22;7661;48.904;9.414;2023-07-02T08:13:05;19.90;99.90
15121;DHT22;7661;48.904;9.414;2023-07-02T08:15:32;20.00;99.90
15121;DHT22;7661;48.904;9.414;2023-07-02T08:17:58;19.90;99.90
15121;DHT22;7661;48.904;9.414;2023-07-02T08:20:25;20.00;99.90
15121;DHT22;7661;48.904;9.414;2023-07-02T08:22:52;20.00;99.90
15121;DHT22;7661;48.904;9.414;2023-07-02T08:25:19;20.20;99.90
15121;DHT22;7661;48.904;9.414;2023-07-02T08:27:47;20.30;99.90
15121;DHT22;7661;48.904;9.414;2023-07-02T08:30:15;20.60;99.90
15121;DHT22;7661;48.904;9.414;2023-07-02T08:32:42;20.80;99.90
15121;DHT22;7661;48.904;9.414;2023-07-02T08:35:09;21.00;99.90
15121;DHT22;7661;48.904;9.414;2023-07-02T08:37:36;21.20;99.90
15121;DHT22;7661;48.904;9.414;2023-07-02T08:40:03;21.40;99.90
15121;DHT22;7661;48.904;9.414;2023-07-02T08:42:31;21.50;99.90
15121;DHT22;7661;48.904;9.414;2023-07-02T08:44:59;21.40;99.90
15121;DHT22;7661;48.904;9.414;2023-07-02T08:47:27;21.50;99.90
15121;DHT22;7661;48.904;9.414;2023-07-02T08:49:54;21.50;99.90
15121;DHT22;7661;48.904;9.414;2023-07-02T08:52:21;21.50;99.90
15121;DHT22;7661;48.904;9.414;2023-07-02T08:54:48;21.50;99.90
15121;DHT22;7661;48.904;9.414;2023-07-02T08:57:15;21.60;99.90
15121;DHT22;7661;48.904;9.414;2023-07-02T08:59:42;21.40;99.90
15121;DHT22;7661;48.904;9.414;2023-07-02T09:02:09;21.50;99.90
15121;DHT22;7661;48.904;9.414;2023-07-02T09:04:37;21.50;99.90
15121;DHT22;7661;48.904;9.414;2023-07-02T09:07:05;21.60;99.90
15121;DHT22;7661;48.904;9.414;2023-07-02T09:09:32;21.60;99.90
15121;DHT22;7661;48.904;9.414;2023-07-02T09:11:59;21.40;99.90
15121;DHT22;7661;48.904;9.414;2023-07-02T09:14:27;21.20;99.90
15121;DHT22;7661;48.904;9.414;2023-07-02T09:17:02;21.30;99.90
15121;DHT22;7661;48.904;9.414;2023-07-02T09:19:29;21.40;99.90
15121;DHT22;7661;48.904;9.414;2023-07-02T09:21:59;21.60;99.90
15121;DHT22;7661;48.904;9.414;2023-07-02T09:24:27;21.80;99.90
15121;DHT22;7661;48.904;9.414;2023-07-02T09:26:56;21.90;99.90
15121;DHT22;7661;48.904;9.414;2023-07-02T09:29:24;21.90;99.90
15121;DHT22;7661;48.904;9.414;2023-07-02T09:31:54;21.90;99.90
15121;DHT22;7661;48.904;9.414;2023-07-02T09:34:27;21.80;99.90
15121;DHT22;7661;48.904;9.414;2023-07-02T09:36:54;22.00;99.90
15121;DHT22;7661;48.904;9.414;2023-07-02T09:39:26;22.40;99.90
15121;DHT22;7661;48.904;9.414;2023-07-02T09:41:55;22.50;99.90
15121;DHT22;7661;48.904;9.414;2023-07-02T09:44:26;22.70;99.90
15121;DHT22;7661;48.904;9.414;2023-07-02T09:46:58;23.10;99.90
15121;DHT22;7661;48.904;9.414;2023-07-02T09:49:27;23.80;99.90
15121;DHT22;7661;48.904;9.414;2023-07-02T09:51:55;24.00;99.90
15121;DHT22;7661;48.904;9.414;2023-07-02T09:54:23;24.20;99.90
15121;DHT22;7661;48.904;9.414;2023-07-02T09:56:50;24.20;99.40
15121;DHT22;7661;48.904;9.414;2023-07-02T09:59:17;24.20;99.00
15121;DHT22;7661;48.904;9.414;2023-07-02T10:01:44;23.80;99.90
15121;DHT22;7661;48.904;9.414;2023-07-02T10:04:15;23.80;99.90
15121;DHT22;7661;48.904;9.414;2023-07-02T10:06:47;24.10;99.90
15121;DHT22;7661;48.904;9.414;2023-07-02T10:09:15;24.40;99.40
15121;DHT22;7661;48.904;9.414;2023-07-02T10:11:44;24.40;99.40
15121;DHT22;7661;48.904;9.414;2023-07-02T10:14:11;24.50;97.60
15121;DHT22;7661;48.904;9.414;2023-07-02T10:16:51;24.10;98.20
15121;DHT22;7661;48.904;9.414;2023-07-02T10:19:19;24.50;97.20
15121;DHT22;7661;48.904;9.414;2023-07-02T10:21:46;24.90;97.70
15121;DHT22;7661;48.904;9.414;2023-07-02T10:24:16;24.90;96.60
15121;DHT22;7661;48.904;9.414;2023-07-02T10:26:54;24.80;95.80
15121;DHT22;7661;48.904;9.414;2023-07-02T10:29:22;25.00;95.50
15121;DHT22;7661;48.904;9.414;2023-07-02T10:31:50;24.90;94.80
15121;DHT22;7661;48.904;9.414;2023-07-02T10:34:28;25.00;95.80
15121;DHT22;7661;48.904;9.414;2023-07-02T10:36:56;24.90;95.10
15121;DHT22;7661;48.904;9.414;2023-07-02T10:39:23;24.70;94.50
15121;DHT22;7661;48.904;9.414;2023-07-02T10:41:51;25.00;95.80
15121;DHT22;7661;48.904;9.414;2023-07-02T10:44:20;25.60;95.10
15121;DHT22;7661;48.904;9.414;2023-07-02T10:46:47;25.80;94.00
15121;DHT22;7661;48.904;9.414;2023-07-02T10:49:16;26.20;94.40
15121;DHT22;7661;48.904;9.414;2023-07-02T10:51:43;26.80;93.30
15121;DHT22;7661;48.904;9.414;2023-07-02T10:54:10;26.90;92.20
15121;DHT22;7661;48.904;9.414;2023-07-02T10:56:37;27.20;91.80
15121;DHT22;7661;48.904;9.414;2023-07-02T10:59:04;27.40;91.60
15121;DHT22;7661;48.904;9.414;2023-07-02T11:01:32;27.20;90.90
15121;DHT22;7661;48.904;9.414;2023-07-02T11:03:59;27.00;90.70
15121;DHT22;7661;48.904;9.414;2023-07-02T11:06:27;27.10;90.10
15121;DHT22;7661;48.904;9.414;2023-07-02T11:08:54;27.20;90.00
15121;DHT22;7661;48.904;9.414;2023-07-02T11:11:22;27.60;90.20
15121;DHT22;7661;48.904;9.414;2023-07-02T11:13:50;27.30;86.60
15121;DHT22;7661;48.904;9.414;2023-07-02T11:16:22;27.50;87.60
15121;DHT22;7661;48.904;9.414;2023-07-02T11:18:53;27.40;87.10
15121;DHT22;7661;48.904;9.414;2023-07-02T11:21:20;27.40;86.70
15121;DHT22;7661;48.904;9.414;2023-07-02T11:23:47;27.60;86.10
15121;DHT22;7661;48.904;9.414;2023-07-02T11:26:13;27.60;85.90
15121;DHT22;7661;48.904;9.414;2023-07-02T11:28:50;27.40;84.30
15121;DHT22;7661;48.904;9.414;2023-07-02T11:31:27;27.60;82.60
15121;DHT22;7661;48.904;9.414;2023-07-02T11:33:55;28.00;84.20
15121;DHT22;7661;48.904;9.414;2023-07-02T11:36:23;28.30;81.00
15121;DHT22;7661;48.904;9.414;2023-07-02T11:38:51;28.30;80.50
15121;DHT22;7661;48.904;9.414;2023-07-02T11:41:19;28.00;83.50
15121;DHT22;7661;48.904;9.414;2023-07-02T11:43:46;28.30;83.30
15121;DHT22;7661;48.904;9.414;2023-07-02T11:46:13;28.80;81.00
15121;DHT22;7661;48.904;9.414;2023-07-02T11:48:40;28.90;79.10
15121;DHT22;7661;48.904;9.414;2023-07-02T11:51:09;28.70;80.60
15121;DHT22;7661;48.904;9.414;2023-07-02T11:53:36;28.90;80.90
15121;DHT22;7661;48.904;9.414;2023-07-02T11:56:03;29.40;78.90
15121;DHT22;7661;48.904;9.414;2023-07-02T11:58:29;29.10;78.00
15121;DHT22;7661;48.904;9.414;2023-07-02T12:00:56;28.70;78.40
15121;DHT22;7661;48.904;9.414;2023-07-02T12:03:23;28.20;76.70
15121;DHT22;7661;48.904;9.414;2023-07-02T12:05:50;28.00;81.10
15121;DHT22;7661;48.904;9.414;2023-07-02T12:08:19;28.20;79.00
15121;DHT22;7661;48.904;9.414;2023-07-02T12:10:45;28.40;79.00
15121;DHT22;7661;48.904;9.414;2023-07-02T12:13:12;28.80;77.60
15121;DHT22;7661;48.904;9.414;2023-07-02T12:15:39;29.30;78.60
15121;DHT22;7661;48.904;9.414;2023-07-02T12:18:07;29.90;75.30
15121;DHT22;7661;48.904;9.414;2023-07-02T12:20:35;30.40;73.80
15121;DHT22;7661;48.904;9.414;2023-07-02T12:23:02;30.80;71.00
15121;DHT22;7661;48.904;9.414;2023-07-02T12:25:30;30.10;68.10
15121;DHT22;7661;48.904;9.414;2023-07-02T12:27:57;29.10;69.00
15121;DHT22;7661;48.904;9.414;2023-07-02T12:30:23;28.80;73.40
15121;DHT22;7661;48.904;9.414;2023-07-02T12:32:50;28.00;75.30
15121;DHT22;7661;48.904;9.414;2023-07-02T12:35:17;28.00;76.80
15121;DHT22;7661;48.904;9.414;2023-07-02T12:37:44;28.20;75.80
15121;DHT22;7661;48.904;9.414;2023-07-02T12:40:12;28.70;75.00
15121;DHT22;7661;48.904;9.414;2023-07-02T12:42:41;29.30;74.10
15121;DHT22;7661;48.904;9.414;2023-07-02T12:45:09;29.30;72.00
15121;DHT22;7661;48.904;9.414;2023-07-02T12:47:36;29.40;72.10
15121;DHT22;7661;48.904;9.414;2023-07-02T12:50:03;30.10;70.50
15121;DHT22;7661;48.904;9.414;2023-07-02T12:52:30;30.40;68.70
15121;DHT22;7661;48.904;9.414;2023-07-02T12:54:57;29.80;64.70
15121;DHT22;7661;48.904;9.414;2023-07-02T12:57:24;29.80;66.50
15121;DHT22;7661;48.904;9.414;2023-07-02T12:59:53;29.60;64.80
15121;DHT22;7661;48.904;9.414;2023-07-02T13:02:20;29.40;64.40
15121;DHT22;7661;48.904;9.414;2023-07-02T13:04:47;29.00;65.10
15121;DHT22;7661;48.904;9.414;2023-07-02T13:07:14;28.80;67.70
15121;DHT22;7661;48.904;9.414;2023-07-02T13:09:41;29.20;68.80
15121;DHT22;7661;48.904;9.414;2023-07-02T13:12:09;29.80;69.70
15121;DHT22;7661;48.904;9.414;2023-07-02T13:14:36;30.30;64.80
15121;DHT22;7661;48.904;9.414;2023-07-02T13:17:05;30.40;64.70
15121;DHT22;7661;48.904;9.414;2023-07-02T13:19:32;30.60;65.20
15121;DHT22;7661;48.904;9.414;2023-07-02T13:21:59;31.00;62.80
15121;DHT22;7661;48.904;9.414;2023-07-02T13:24:31;31.30;62.00
15121;DHT22;7661;48.904;9.414;2023-07-02T13:26:58;31.50;59.60
15121;DHT22;7661;48.904;9.414;2023-07-02T13:29:25;31.20;60.30
15121;DHT22;7661;48.904;9.414;2023-07-02T13:31:52;31.00;60.00
15121;DHT22;7661;48.904;9.414;2023-07-02T13:34:20;31.10;58.30
15121;DHT22;7661;48.904;9.414;2023-07-02T13:36:47;31.00;57.50
15121;DHT22;7661;48.904;9.414;2023-07-02T13:39:14;30.70;56.90
15121;DHT22;7661;48.904;9.414;2023-07-02T13:41:41;30.40;60.60
15121;DHT22;7661;48.904;9.414;2023-07-02T13:44:08;30.70;60.50
15121;DHT22;7661;48.904;9.414;2023-07-02T13:46:35;31.10;59.30
15121;DHT22;7661;48.904;9.414;2023-07-02T13:49:02;30.80;58.10
15121;DHT22;7661;48.904;9.414;2023-07-02T13:51:30;30.60;58.80
15121;DHT22;7661;48.904;9.414;2023-07-02T13:53:57;30.50;58.90
15121;DHT22;7661;48.904;9.414;2023-07-02T13:56:23;30.10;57.60
15121;DHT22;7661;48.904;9.414;2023-07-02T13:59:04;30.20;59.40
15121;DHT22;7661;48.904;9.414;2023-07-02T14:01:31;30.90;58.30
15121;DHT22;7661;48.904;9.414;2023-07-02T14:03:59;31.30;56.90
15121;DHT22;7661;48.904;9.414;2023-07-02T14:06:26;31.10;55.70
15121;DHT22;7661;48.904;9.414;2023-07-02T14:08:53;30.50;56.10
15121;DHT22;7661;48.904;9.414;2023-07-02T14:11:21;30.30;55.10
15121;DHT22;7661;48.904;9.414;2023-07-02T14:13:48;30.40;57.10
15121;DHT22;7661;48.904;9.414;2023-07-02T14:16:17;30.50;55.20
15121;DHT22;7661;48.904;9.414;2023-07-02T14:18:44;30.50;55.60
15121;DHT22;7661;48.904;9.414;2023-07-02T14:21:11;30.50;55.10
15121;DHT22;7661;48.904;9.414;2023-07-02T14:23:37;30.60;55.20
15121;DHT22;7661;48.904;9.414;2023-07-02T14:26:04;30.50;55.60
15121;DHT22;7661;48.904;9.414;2023-07-02T14:28:31;30.60;56.50
15121;DHT22;7661;48.904;9.414;2023-07-02T14:30:59;30.80;55.70
15121;DHT22;7661;48.904;9.414;2023-07-02T14:33:29;31.00;53.90
15121;DHT22;7661;48.904;9.414;2023-07-02T14:35:56;30.80;54.90
15121;DHT22;7661;48.904;9.414;2023-07-02T14:38:23;30.30;54.70
15121;DHT22;7661;48.904;9.414;2023-07-02T14:40:50;30.20;55.30
15121;DHT22;7661;48.904;9.414;2023-07-02T14:43:17;30.40;54.30
15121;DHT22;7661;48.904;9.414;2023-07-02T14:45:47;30.50;54.50
15121;DHT22;7661;48.904;9.414;2023-07-02T14:48:14;30.50;56.20
15121;DHT22;7661;48.904;9.414;2023-07-02T14:50:45;30.30;55.40
15121;DHT22;7661;48.904;9.414;2023-07-02T14:53:12;30.40;55.30
15121;DHT22;7661;48.904;9.414;2023-07-02T14:55:39;30.50;54.40
15121;DHT22;7661;48.904;9.414;2023-07-02T14:58:06;30.60;56.00
15121;DHT22;7661;48.904;9.414;2023-07-02T15:00:33;30.60;54.20
15121;DHT22;7661;48.904;9.414;2023-07-02T15:03:00;30.50;55.00
15121;DHT22;7661;48.904;9.414;2023-07-02T15:05:27;30.50;53.90
15121;DHT22;7661;48.904;9.414;2023-07-02T15:07:56;30.50;55.30
15121;DHT22;7661;48.904;9.414;2023-07-02T15:10:22;30.50;54.60
15121;DHT22;7661;48.904;9.414;2023-07-02T15:12:49;30.60;54.00
15121;DHT22;7661;48.904;9.414;2023-07-02T15:15:16;30.50;52.70
15121;DHT22;7661;48.904;9.414;2023-07-02T15:17:43;29.70;53.30
15121;DHT22;7661;48.904;9.414;2023-07-02T15:20:11;29.30;54.90
15121;DHT22;7661;48.904;9.414;2023-07-02T15:22:38;29.00;55.30
15121;DHT22;7661;48.904;9.414;2023-07-02T15:25:07;28.60;55.50
15121;DHT22;7661;48.904;9.414;2023-07-02T15:27:34;28.50;56.60
15121;DHT22;7661;48.904;9.414;2023-07-02T15:30:01;28.80;56.00
15121;DHT22;7661;48.904;9.414;2023-07-02T15:32:27;29.10;56.30
15121;DHT22;7661;48.904;9.414;2023-07-02T15:34:54;29.40;55.90
15121;DHT22;7661;48.904;9.414;2023-07-02T15:37:22;29.50;56.80
15121;DHT22;7661;48.904;9.414;2023-07-02T15:39:49;29.30;54.80
15121;DHT22;7661;48.904;9.414;2023-07-02T15:42:17;29.20;55.20
15121;DHT22;7661;48.904;9.414;2023-07-02T15:44:45;28.90;55.90
15121;DHT22;7661;48.904;9.414;2023-07-02T15:47:12;28.70;57.10